Time;durP1;ratioP1;P1;durP2;ratioP2;P2;SDS_P1;SDS_P2;PMS_P1;PMS_P2;Temp;Humidity;BMP_temperature;BMP_pressure;BME280_temperature;BME280_humidity;BME280_pressure;Samples;Min_cycle;Max_cycle;Signal;HPM_P1;HPM_P2
2024/01/17 00:01:54;;;;;;;1999.90;999.90;;;-6.60;99.90;;;;;;4960384;28;20036;-83
2024/01/17 00:04:20;;;;;;;1999.90;999.90;;;-6.60;99.90;;;;;;4960810;28;20036;-83
2024/01/17 00:06:45;;;;;;;1999.90;999.90;;;-6.60;99.90;;;;;;4943146;28;20047;-83
2024/01/17 00:09:12;;;;;;;1999.90;999.90;;;-6.50;99.90;;;;;;4942960;28;20438;-82
2024/01/17 00:11:37;;;;;;;1999.90;999.90;;;-6.50;99.90;;;;;;4943796;28;20039;-83
2024/01/17 00:14:03;;;;;;;1999.90;999.90;;;-6.50;99.90;;;;;;4960743;28;20036;-82
2024/01/17 00:16:28;;;;;;;1999.90;999.90;;;-6.50;99.90;;;;;;4950457;28;20064;-82
2024/01/17 00:18:57;;;;;;;1999.90;999.90;;;-6.50;99.90;;;;;;4957688;28;20042;-82
2024/01/17 00:21:22;;;;;;;1999.90;999.90;;;-6.50;99.90;;;;;;4958304;28;20028;-83
2024/01/17 00:23:48;;;;;;;1999.90;999.90;;;-6.50;99.90;;;;;;4962649;28;20040;-82
2024/01/17 00:26:14;;;;;;;1999.90;999.90;;;-6.40;99.90;;;;;;4961468;28;20095;-82
2024/01/17 00:28:39;;;;;;;1999.90;999.90;;;-6.40;99.90;;;;;;4961672;28;20048;-83
2024/01/17 00:31:05;;;;;;;1999.90;999.90;;;-6.30;99.90;;;;;;4961924;28;20055;-82
2024/01/17 00:33:30;;;;;;;1999.90;999.90;;;-6.40;99.90;;;;;;4965953;28;20046;-83
2024/01/17 00:35:56;;;;;;;1999.90;999.90;;;-6.30;99.90;;;;;;4959865;28;20084;-83
2024/01/17 00:38:21;;;;;;;1999.90;999.90;;;-6.30;99.90;;;;;;4959673;28;20082;-82
2024/01/17 00:40:47;;;;;;;1999.90;999.90;;;-6.30;99.90;;;;;;4959484;28;20059;-83
2024/01/17 00:43:12;;;;;;;1999.90;999.90;;;-6.30;99.90;;;;;;4961499;28;20511;-83
2024/01/17 00:45:39;;;;;;;1999.90;999.90;;;-6.30;99.90;;;;;;4961791;28;20059;-83
2024/01/17 00:48:05;;;;;;;1999.90;999.90;;;-6.30;99.90;;;;;;4973109;23;20051;-81
2024/01/17 00:50:31;;;;;;;1999.90;999.90;;;-6.30;99.90;;;;;;4956149;28;20433;-81
2024/01/17 00:52:56;;;;;;;1999.90;999.90;;;-6.30;99.90;;;;;;4955825;28;20054;-82
2024/01/17 00:55:22;;;;;;;1999.90;999.90;;;-6.40;99.90;;;;;;4956173;28;20736;-80
2024/01/17 00:57:47;;;;;;;1999.90;999.90;;;-6.40;99.90;;;;;;4956024;28;20092;-81
2024/01/17 01:00:13;;;;;;;1999.90;999.90;;;-6.40;99.90;;;;;;4956201;28;20551;-81
2024/01/17 01:02:39;;;;;;;1999.90;999.90;;;-6.30;99.90;;;;;;4955757;28;20032;-81
2024/01/17 01:05:04;;;;;;;1999.90;999.90;;;-6.30;99.90;;;;;;4956042;28;20032;-81
2024/01/17 01:07:30;;;;;;;1999.90;999.90;;;-6.30;99.90;;;;;;4955679;28;20039;-81
2024/01/17 01:09:56;;;;;;;1999.90;999.90;;;-6.20;99.90;;;;;;4955806;28;20036;-80
2024/01/17 01:12:21;;;;;;;1999.90;999.90;;;-6.20;99.90;;;;;;4956843;28;20813;-81
2024/01/17 01:14:47;;;;;;;1999.90;999.90;;;-6.10;99.90;;;;;;4957095;28;20482;-81
2024/01/17 01:17:12;;;;;;;1999.90;999.90;;;-6.00;99.90;;;;;;4955601;28;20592;-82
2024/01/17 01:19:38;;;;;;;1999.90;999.90;;;-6.00;99.90;;;;;;4957313;28;20808;-81
2024/01/17 01:22:03;;;;;;;1999.90;999.90;;;-5.90;99.90;;;;;;4955483;28;20065;-80
2024/01/17 01:24:29;;;;;;;1999.90;999.90;;;-5.90;99.90;;;;;;4955755;28;20055;-81
2024/01/17 01:26:54;;;;;;;1999.90;999.90;;;-5.90;99.90;;;;;;4956894;28;20062;-81
2024/01/17 01:29:20;;;;;;;1999.90;999.90;;;-5.80;99.90;;;;;;4957152;28;20036;-80
2024/01/17 01:31:45;;;;;;;1999.90;999.90;;;-5.80;99.90;;;;;;4955573;28;20074;-81
2024/01/17 01:34:11;;;;;;;1999.90;999.90;;;-5.90;99.90;;;;;;4955597;28;20059;-80
2024/01/17 01:36:37;;;;;;;1999.90;999.90;;;-5.80;99.90;;;;;;4956212;28;20063;-80
2024/01/17 01:39:02;;;;;;;1999.90;999.90;;;-5.80;99.90;;;;;;4956469;28;20079;-80
2024/01/17 01:41:28;;;;;;;1999.90;999.90;;;-5.70;99.90;;;;;;4956152;28;20075;-80
2024/01/17 01:43:53;;;;;;;1999.90;999.90;;;-5.70;99.90;;;;;;4958577;28;20383;-81
2024/01/17 01:46:23;;;;;;;1999.90;999.90;;;-5.60;99.90;;;;;;4956400;28;20040;-81
2024/01/17 01:48:50;;;;;;;1999.90;999.90;;;-5.60;99.90;;;;;;4958292;28;20032;-81
2024/01/17 01:51:16;;;;;;;1999.90;999.90;;;-5.50;99.90;;;;;;4956431;28;20036;-80
2024/01/17 01:53:44;;;;;;;1999.90;999.90;;;-5.50;99.90;;;;;;4961524;28;20040;-81
2024/01/17 01:56:11;;;;;;;1999.90;999.90;;;-5.50;99.90;;;;;;4960569;28;20624;-81
2024/01/17 01:58:39;;;;;;;1999.90;999.90;;;-5.50;99.90;;;;;;4960656;28;20050;-80
2024/01/17 02:01:06;;;;;;;1999.90;999.90;;;-5.50;99.90;;;;;;4961048;28;20059;-81
2024/01/17 02:03:32;;;;;;;1999.90;999.90;;;-5.40;99.90;;;;;;4958651;28;20831;-81
2024/01/17 02:05:59;;;;;;;1999.90;999.90;;;-5.40;99.90;;;;;;4958554;28;20039;-81
2024/01/17 02:08:25;;;;;;;1999.90;999.90;;;-5.40;99.90;;;;;;4958832;28;20040;-81
2024/01/17 02:10:50;;;;;;;1999.90;999.90;;;-5.40;99.90;;;;;;4960041;28;20490;-81
2024/01/17 02:13:16;;;;;;;1999.90;999.90;;;-5.40;99.90;;;;;;4959680;28;20126;-81
2024/01/17 02:15:41;;;;;;;1999.90;999.90;;;-5.30;99.90;;;;;;4958543;28;20110;-81
2024/01/17 02:18:07;;;;;;;1999.90;999.90;;;-5.30;99.90;;;;;;4958426;28;20038;-80
2024/01/17 02:20:33;;;;;;;1999.90;999.90;;;-5.30;99.90;;;;;;4960061;28;20032;-81
2024/01/17 02:22:58;;;;;;;1999.90;999.90;;;-5.30;99.90;;;;;;4958294;28;20050;-81
2024/01/17 02:25:24;;;;;;;1999.90;999.90;;;-5.40;99.90;;;;;;4958511;28;20067;-81
2024/01/17 02:27:49;;;;;;;1999.90;999.90;;;-5.40;99.90;;;;;;4958265;28;20074;-81
2024/01/17 02:30:15;;;;;;;1999.90;999.90;;;-5.40;99.90;;;;;;4959832;28;20028;-81
2024/01/17 02:32:43;;;;;;;1999.90;999.90;;;-5.30;99.90;;;;;;4959572;28;20039;-80
2024/01/17 02:35:09;;;;;;;1999.90;999.90;;;-5.30;99.90;;;;;;4959662;28;20036;-81
2024/01/17 02:37:35;;;;;;;1999.90;999.90;;;-5.20;99.90;;;;;;4957921;28;20036;-81
2024/01/17 02:40:00;;;;;;;1999.90;999.90;;;-5.20;99.90;;;;;;4957862;28;20036;-81
2024/01/17 02:42:26;;;;;;;1999.90;999.90;;;-5.20;99.90;;;;;;4957320;28;20397;-81
2024/01/17 02:44:51;;;;;;;1999.90;999.90;;;-5.20;99.90;;;;;;4957951;28;20054;-80
2024/01/17 02:47:17;;;;;;;1999.90;999.90;;;-5.10;99.90;;;;;;4957368;28;20039;-81
2024/01/17 02:49:42;;;;;;;1999.90;999.90;;;-5.10;99.90;;;;;;4959529;28;20032;-81
2024/01/17 02:52:08;;;;;;;1999.90;999.90;;;-5.00;99.90;;;;;;4958913;28;20502;-81
2024/01/17 02:54:33;;;;;;;1999.90;999.90;;;-5.00;99.90;;;;;;4957895;28;20075;-81
2024/01/17 02:56:59;;;;;;;1999.90;999.90;;;-5.00;99.90;;;;;;4958948;28;20032;-80
2024/01/17 02:59:25;;;;;;;1999.90;999.90;;;-5.00;99.90;;;;;;4959372;28;20047;-80
2024/01/17 03:01:50;;;;;;;1999.90;999.90;;;-4.90;99.90;;;;;;4957763;28;20039;-81
2024/01/17 03:04:16;;;;;;;1999.90;999.90;;;-4.80;99.90;;;;;;4957871;28;20094;-81
2024/01/17 03:06:43;;;;;;;1999.90;999.90;;;-4.80;99.90;;;;;;4958761;28;20027;-81
2024/01/17 03:09:10;;;;;;;1999.90;999.90;;;-4.80;99.90;;;;;;4957970;28;20039;-81
2024/01/17 03:11:36;;;;;;;1999.90;999.90;;;-4.80;99.90;;;;;;4957534;28;20063;-81
2024/01/17 03:14:03;;;;;;;1999.90;999.90;;;-4.80;99.90;;;;;;4959079;28;20207;-81
2024/01/17 03:16:28;;;;;;;1999.90;999.90;;;-4.70;99.90;;;;;;4959430;28;20777;-82
2024/01/17 03:18:54;;;;;;;1999.90;999.90;;;-4.70;99.90;;;;;;4957877;28;20043;-80
2024/01/17 03:21:19;;;;;;;1999.90;999.90;;;-4.70;99.90;;;;;;4957669;28;20035;-80
2024/01/17 03:23:45;;;;;;;1999.90;999.90;;;-4.70;99.90;;;;;;4958053;28;20046;-81
2024/01/17 03:26:11;;;;;;;1999.90;999.90;;;-4.60;99.90;;;;;;4958717;28;20032;-80
2024/01/17 03:28:36;;;;;;;1999.90;999.90;;;-4.70;99.90;;;;;;4957780;28;20039;-81
2024/01/17 03:31:02;;;;;;;1999.90;999.90;;;-4.60;99.90;;;;;;4957947;28;20094;-80
2024/01/17 03:33:27;;;;;;;1999.90;999.90;;;-4.50;99.90;;;;;;4957513;28;20044;-81
2024/01/17 03:35:53;;;;;;;1999.90;999.90;;;-4.60;99.90;;;;;;4957481;28;20031;-80
2024/01/17 03:38:21;;;;;;;1999.90;999.90;;;-4.60;99.90;;;;;;4958693;28;20035;-80
2024/01/17 03:40:46;;;;;;;1999.90;999.90;;;-4.50;99.90;;;;;;4958445;28;20056;-81
2024/01/17 03:43:12;;;;;;;1999.90;999.90;;;-4.50;99.90;;;;;;4959120;28;20112;-81
2024/01/17 03:45:37;;;;;;;1999.90;999.90;;;-4.50;99.90;;;;;;4957671;28;20087;-80
2024/01/17 03:48:04;;;;;;;1999.90;999.90;;;-4.50;99.90;;;;;;4958929;28;20039;-80
2024/01/17 03:50:30;;;;;;;1999.90;999.90;;;-4.40;99.90;;;;;;4959607;28;20028;-81
2024/01/17 03:52:55;;;;;;;1999.90;999.90;;;-4.40;99.90;;;;;;4957708;28;20048;-81
2024/01/17 03:55:21;;;;;;;1999.90;999.90;;;-4.40;99.90;;;;;;4957600;28;20123;-81
2024/01/17 03:57:47;;;;;;;1999.90;999.90;;;-4.40;99.90;;;;;;4957111;28;20031;-81
2024/01/17 04:00:14;;;;;;;1999.90;999.90;;;-4.30;99.90;;;;;;4957687;28;20031;-81
2024/01/17 04:02:39;;;;;;;1999.90;999.90;;;-4.30;99.90;;;;;;4957555;28;20087;-81
2024/01/17 04:05:05;;;;;;;1999.90;999.90;;;-4.30;99.90;;;;;;4957898;28;20032;-80
2024/01/17 04:07:31;;;;;;;1999.90;999.90;;;-4.30;99.90;;;;;;4956587;28;20047;-81
2024/01/17 04:09:56;;;;;;;1999.90;999.90;;;-4.20;99.90;;;;;;4958350;28;20043;-81
2024/01/17 04:12:22;;;;;;;1999.90;999.90;;;-4.20;99.90;;;;;;4956348;28;20040;-81
2024/01/17 04:14:47;;;;;;;1999.90;999.90;;;-4.20;99.90;;;;;;4957685;28;20043;-81
2024/01/17 04:17:13;;;;;;;1999.90;999.90;;;-4.20;99.90;;;;;;4956432;28;20038;-80
2024/01/17 04:19:40;;;;;;;1999.90;999.90;;;-4.20;99.90;;;;;;4956701;28;20094;-81
2024/01/17 04:22:05;;;;;;;1999.90;999.90;;;-4.10;99.90;;;;;;4956355;28;20103;-81
2024/01/17 04:24:31;;;;;;;1999.90;999.90;;;-4.10;99.90;;;;;;4957853;28;20482;-81
2024/01/17 04:26:56;;;;;;;1999.90;999.90;;;-4.10;99.90;;;;;;4956538;28;20149;-81
2024/01/17 04:29:23;;;;;;;1999.90;999.90;;;-4.00;99.90;;;;;;4956575;28;20525;-81
2024/01/17 04:31:49;;;;;;;1999.90;999.90;;;-4.00;99.90;;;;;;4956518;28;20067;-81
2024/01/17 04:34:15;;;;;;;1999.90;999.90;;;-4.00;99.90;;;;;;4956479;28;20537;-82
2024/01/17 04:36:41;;;;;;;1999.90;999.90;;;-3.90;99.90;;;;;;4955968;28;20047;-81
2024/01/17 04:39:08;;;;;;;1999.90;999.90;;;-3.90;99.90;;;;;;4956311;28;20032;-81
2024/01/17 04:41:33;;;;;;;1999.90;999.90;;;-3.90;99.90;;;;;;4957509;28;20054;-81
2024/01/17 04:43:59;;;;;;;1999.90;999.90;;;-3.80;99.90;;;;;;4956301;28;20489;-81
2024/01/17 04:46:24;;;;;;;1999.90;999.90;;;-3.90;99.90;;;;;;4955717;28;20102;-81
2024/01/17 04:48:50;;;;;;;1999.90;999.90;;;-3.90;99.90;;;;;;4957763;28;20439;-81
2024/01/17 04:51:16;;;;;;;1999.90;999.90;;;-3.90;99.90;;;;;;4957468;28;20497;-81
2024/01/17 04:53:44;;;;;;;1999.90;999.90;;;-3.90;99.90;;;;;;4957586;28;20044;-81
2024/01/17 04:56:11;;;;;;;1999.90;999.90;;;-3.90;99.90;;;;;;4955944;28;20028;-81
2024/01/17 04:58:37;;;;;;;1999.90;999.90;;;-3.80;99.90;;;;;;4957435;28;20038;-81
2024/01/17 05:01:05;;;;;;;1999.90;999.90;;;-3.80;99.90;;;;;;4955799;28;20091;-81
2024/01/17 05:03:32;;;;;;;1999.90;999.90;;;-3.80;99.90;;;;;;4956049;28;20577;-81
2024/01/17 05:05:58;;;;;;;1999.90;999.90;;;-3.80;99.90;;;;;;4955924;28;20036;-81
2024/01/17 05:08:24;;;;;;;1999.90;999.90;;;-3.80;99.90;;;;;;4956097;28;20039;-81
2024/01/17 05:10:50;;;;;;;1999.90;999.90;;;-3.80;99.90;;;;;;4955929;28;20040;-81
2024/01/17 05:13:15;;;;;;;1999.90;999.90;;;-3.80;99.90;;;;;;4955671;28;20039;-81
2024/01/17 05:15:41;;;;;;;1999.90;999.90;;;-3.80;99.90;;;;;;4955908;28;20051;-81
2024/01/17 05:18:07;;;;;;;1999.90;999.90;;;-3.70;99.90;;;;;;4955635;28;20426;-81
2024/01/17 05:20:33;;;;;;;1999.90;999.90;;;-3.70;99.90;;;;;;4955853;28;20039;-81
2024/01/17 05:22:59;;;;;;;1999.90;999.90;;;-3.70;99.90;;;;;;4957004;28;20062;-81
2024/01/17 05:25:26;;;;;;;1999.90;999.90;;;-3.60;99.90;;;;;;4957018;28;20027;-81
2024/01/17 05:27:52;;;;;;;1999.90;999.90;;;-3.60;99.90;;;;;;4955641;28;20067;-81
2024/01/17 05:30:21;;;;;;;1999.90;999.90;;;-3.60;99.90;;;;;;4955949;28;20036;-81
2024/01/17 05:32:47;;;;;;;1999.90;999.90;;;-3.50;99.90;;;;;;4955622;28;20071;-84
2024/01/17 05:35:14;;;;;;;1999.90;999.90;;;-3.50;99.90;;;;;;4955786;28;20052;-81
2024/01/17 05:37:43;;;;;;;1999.90;999.90;;;-3.50;99.90;;;;;;4955688;28;20043;-81
2024/01/17 05:40:15;;;;;;;1999.90;999.90;;;-3.50;99.90;;;;;;4956785;28;20042;-81
2024/01/17 05:42:44;;;;;;;1999.90;999.90;;;-3.40;99.90;;;;;;4956307;28;20078;-80
2024/01/17 05:45:10;;;;;;;1999.90;999.90;;;-3.50;99.90;;;;;;4955849;28;20441;-81
2024/01/17 05:47:36;;;;;;;1999.90;999.90;;;-3.40;99.90;;;;;;4956598;28;20039;-81
2024/01/17 05:50:03;;;;;;;1999.90;999.90;;;-3.40;99.90;;;;;;4957421;28;20098;-81
2024/01/17 05:52:30;;;;;;;1999.90;999.90;;;-3.40;99.90;;;;;;4956841;28;20040;-82
2024/01/17 05:54:56;;;;;;;1999.90;999.90;;;-3.30;99.90;;;;;;4955618;28;20032;-81
2024/01/17 05:57:22;;;;;;;1999.90;999.90;;;-3.30;99.90;;;;;;4956581;28;20034;-81
2024/01/17 05:59:48;;;;;;;1999.90;999.90;;;-3.30;99.90;;;;;;4956603;28;20040;-82
2024/01/17 06:02:13;;;;;;;1999.90;999.90;;;-3.30;99.90;;;;;;4955302;28;20038;-81
2024/01/17 06:04:39;;;;;;;1999.90;999.90;;;-3.30;99.90;;;;;;4955593;28;20038;-81
2024/01/17 06:07:05;;;;;;;1999.90;999.90;;;-3.30;99.90;;;;;;4956524;28;20040;-81
2024/01/17 06:09:30;;;;;;;1999.90;999.90;;;-3.30;99.90;;;;;;4955012;28;20502;-81
2024/01/17 06:11:56;;;;;;;1999.90;999.90;;;-3.30;99.90;;;;;;4955364;28;20043;-81
2024/01/17 06:14:21;;;;;;;1999.90;999.90;;;-3.20;99.90;;;;;;4956397;28;20128;-81
2024/01/17 06:16:47;;;;;;;1999.90;999.90;;;-3.20;99.90;;;;;;4956676;28;20028;-81
2024/01/17 06:19:14;;;;;;;1999.90;999.90;;;-3.20;99.90;;;;;;4956015;28;20556;-81
2024/01/17 06:21:40;;;;;;;1999.90;999.90;;;-3.20;99.90;;;;;;4956289;28;20036;-82
2024/01/17 06:24:05;;;;;;;1999.90;999.90;;;-3.10;99.90;;;;;;4956670;28;20548;-81
2024/01/17 06:26:31;;;;;;;1999.90;999.90;;;-3.10;99.90;;;;;;4955454;28;20075;-81
2024/01/17 06:28:57;;;;;;;1999.90;999.90;;;-3.10;99.90;;;;;;4956733;28;20039;-81
2024/01/17 06:31:25;;;;;;;1999.90;999.90;;;-3.10;99.90;;;;;;4954783;28;20517;-81
2024/01/17 06:33:51;;;;;;;1999.90;999.90;;;-3.10;99.90;;;;;;4954709;28;20039;-81
2024/01/17 06:36:16;;;;;;;1999.90;999.90;;;-3.10;99.90;;;;;;4954389;28;20032;-80
2024/01/17 06:38:42;;;;;;;1999.90;999.90;;;-3.10;99.90;;;;;;4955336;28;20043;-80
2024/01/17 06:41:07;;;;;;;1999.90;999.90;;;-3.00;99.90;;;;;;4957704;28;20036;-80
2024/01/17 06:43:33;;;;;;;1999.90;999.90;;;-3.00;99.90;;;;;;4958079;28;20043;-81
2024/01/17 06:45:58;;;;;;;1999.90;999.90;;;-2.90;99.90;;;;;;4959070;28;20032;-81
2024/01/17 06:48:24;;;;;;;1999.90;999.90;;;-2.90;99.90;;;;;;4972881;23;20066;-84
2024/01/17 06:50:49;;;;;;;1999.90;999.90;;;-2.80;99.90;;;;;;4960040;28;20078;-84
2024/01/17 06:53:17;;;;;;;1999.90;999.90;;;-2.80;99.90;;;;;;4957957;28;20040;-84
2024/01/17 06:55:43;;;;;;;1999.90;999.90;;;-2.80;99.90;;;;;;4958258;28;20111;-87
2024/01/17 06:58:10;;;;;;;1999.90;999.90;;;-2.90;99.90;;;;;;4957756;28;20040;-86
2024/01/17 07:00:35;;;;;;;1999.90;999.90;;;-2.90;99.90;;;;;;4958666;28;20038;-85
2024/01/17 07:03:01;;;;;;;1999.90;999.90;;;-2.80;99.90;;;;;;4958511;28;20039;-85
2024/01/17 07:05:27;;;;;;;1999.90;999.90;;;-2.70;99.90;;;;;;4958410;28;20438;-85
2024/01/17 07:07:53;;;;;;;1999.90;999.90;;;-2.60;99.90;;;;;;4957909;28;20032;-85
2024/01/17 07:10:19;;;;;;;1999.90;999.90;;;-2.50;99.90;;;;;;4959049;28;20385;-85
2024/01/17 07:12:44;;;;;;;1999.90;999.90;;;-2.50;99.90;;;;;;4959900;28;20062;-85
2024/01/17 07:15:10;;;;;;;1999.90;999.90;;;-2.40;99.90;;;;;;4957823;28;20028;-86
2024/01/17 07:17:35;;;;;;;1999.90;999.90;;;-2.40;99.90;;;;;;4957970;28;20046;-85
2024/01/17 07:20:01;;;;;;;1999.90;999.90;;;-2.40;99.90;;;;;;4960014;28;20039;-85
2024/01/17 07:22:26;;;;;;;1999.90;999.90;;;-2.40;99.90;;;;;;4961276;28;20039;-85
2024/01/17 07:24:52;;;;;;;1999.90;999.90;;;-2.50;99.90;;;;;;4959588;28;20046;-85
2024/01/17 07:27:17;;;;;;;1999.90;999.90;;;-2.40;99.90;;;;;;4959986;28;20039;-87
2024/01/17 07:29:43;;;;;;;1999.90;999.90;;;-2.30;99.90;;;;;;4958920;28;20037;-85
2024/01/17 07:32:08;;;;;;;1999.90;999.90;;;-2.20;99.90;;;;;;4958833;28;20196;-85
2024/01/17 07:34:34;;;;;;;1999.90;999.90;;;-2.20;99.90;;;;;;4958804;28;20130;-85
2024/01/17 07:36:59;;;;;;;1999.90;999.90;;;-2.20;99.90;;;;;;4960705;28;20421;-85
2024/01/17 07:39:25;;;;;;;1999.90;999.90;;;-2.10;99.90;;;;;;4958805;28;20035;-85
2024/01/17 07:41:50;;;;;;;1999.90;999.90;;;-2.10;99.90;;;;;;4958560;28;20028;-85
2024/01/17 07:44:16;;;;;;;1999.90;999.90;;;-2.00;99.90;;;;;;4958981;28;20070;-85
2024/01/17 07:46:42;;;;;;;1999.90;999.90;;;-1.90;99.90;;;;;;4959642;28;21109;-85
2024/01/17 07:49:07;;;;;;;1999.90;999.90;;;-1.90;99.90;;;;;;4958521;28;20039;-85
2024/01/17 07:51:33;;;;;;;1999.90;999.90;;;-1.90;99.90;;;;;;4958209;28;20111;-85
2024/01/17 07:53:58;;;;;;;1999.90;999.90;;;-1.80;99.90;;;;;;4960614;28;20482;-86
2024/01/17 07:56:24;;;;;;;1999.90;999.90;;;-1.70;99.90;;;;;;4959054;28;20043;-85
2024/01/17 07:58:50;;;;;;;1999.90;999.90;;;-1.70;99.90;;;;;;4958984;28;20083;-85
2024/01/17 08:01:16;;;;;;;1999.90;999.90;;;-1.60;99.90;;;;;;4959023;28;20024;-85
2024/01/17 08:03:42;;;;;;;1999.90;999.90;;;-1.50;99.90;;;;;;4960748;28;20032;-85
2024/01/17 08:06:07;;;;;;;1999.90;999.90;;;-1.40;99.90;;;;;;4959107;28;20067;-86
2024/01/17 08:08:33;;;;;;;1999.90;999.90;;;-1.50;99.90;;;;;;4958514;28;20055;-85
2024/01/17 08:10:59;;;;;;;1999.90;999.90;;;-1.40;99.90;;;;;;4960891;28;20039;-87
2024/01/17 08:13:24;;;;;;;1999.90;999.90;;;-1.40;99.90;;;;;;4962021;28;20043;-86
2024/01/17 08:15:50;;;;;;;1999.90;999.90;;;-1.40;99.90;;;;;;4958904;28;20102;-85
2024/01/17 08:18:16;;;;;;;1999.90;999.90;;;-1.30;99.90;;;;;;4956642;28;20115;-86
2024/01/17 08:20:43;;;;;;;1999.90;999.90;;;-1.30;99.90;;;;;;4957157;28;20114;-86
2024/01/17 08:23:08;;;;;;;1999.90;999.90;;;-1.20;99.90;;;;;;4957416;28;20881;-86
2024/01/17 08:25:34;;;;;;;1999.90;999.90;;;-1.20;99.90;;;;;;4957192;28;20099;-86
2024/01/17 08:28:00;;;;;;;1999.90;999.90;;;-1.20;99.90;;;;;;4957349;28;20032;-86
2024/01/17 08:30:26;;;;;;;1999.90;999.90;;;-1.20;99.90;;;;;;4957251;28;20059;-86
2024/01/17 08:32:53;;;;;;;1999.90;999.90;;;-1.20;99.90;;;;;;4957483;28;20043;-86
2024/01/17 08:35:19;;;;;;;1999.90;999.90;;;-1.10;99.90;;;;;;4957573;28;20510;-86
2024/01/17 08:37:45;;;;;;;1999.90;999.90;;;-0.90;99.90;;;;;;4957963;28;20042;-86
2024/01/17 08:40:11;;;;;;;1999.90;999.90;;;-0.90;99.90;;;;;;4957181;28;20043;-86
2024/01/17 08:42:43;;;;;;;1999.90;999.90;;;-0.80;99.90;;;;;;4956939;28;20043;-86
2024/01/17 08:45:10;;;;;;;1999.90;999.90;;;-0.70;99.90;;;;;;4958450;28;20043;-87
2024/01/17 08:47:36;;;;;;;1999.90;999.90;;;-0.70;99.90;;;;;;4956651;28;20051;-86
2024/01/17 08:50:02;;;;;;;1999.90;999.90;;;-0.60;99.90;;;;;;4958174;28;20034;-86
2024/01/17 08:52:28;;;;;;;1999.90;999.90;;;-0.60;99.90;;;;;;4957825;28;20039;-86
2024/01/17 08:55:00;;;;;;;1999.90;999.90;;;-0.50;99.90;;;;;;4956455;28;20051;-87
2024/01/17 08:57:26;;;;;;;1999.90;999.90;;;-0.50;99.90;;;;;;4956404;28;20035;-86
2024/01/17 08:59:51;;;;;;;1999.90;999.90;;;-0.40;99.90;;;;;;4957554;28;20032;-87
2024/01/17 09:02:17;;;;;;;1999.90;999.90;;;-0.30;99.90;;;;;;4956060;28;20075;-87
2024/01/17 09:04:43;;;;;;;1999.90;999.90;;;-0.30;99.90;;;;;;4956418;28;20036;-87
2024/01/17 09:07:08;;;;;;;1999.90;999.90;;;-0.30;99.90;;;;;;4957417;28;20122;-88
2024/01/17 09:09:34;;;;;;;1999.90;999.90;;;-0.20;99.90;;;;;;4955852;28;20035;-86
2024/01/17 09:12:00;;;;;;;1999.90;999.90;;;-0.10;99.90;;;;;;4955263;28;20136;-87
2024/01/17 09:14:25;;;;;;;1999.90;999.90;;;0.00;99.90;;;;;;4956165;28;20039;-87
2024/01/17 09:16:51;;;;;;;1999.90;999.90;;;0.00;99.90;;;;;;4956060;28;20031;-87
2024/01/17 09:19:18;;;;;;;1999.90;999.90;;;0.10;99.90;;;;;;4956452;28;20039;-88
2024/01/17 09:21:43;;;;;;;1999.90;999.90;;;0.10;99.90;;;;;;4955849;28;20543;-88
2024/01/17 09:24:09;;;;;;;1999.90;999.90;;;0.20;99.90;;;;;;4955893;28;20072;-88
2024/01/17 09:26:35;;;;;;;1999.90;999.90;;;0.10;99.90;;;;;;4956034;28;20035;-88
2024/01/17 09:29:00;;;;;;;1999.90;999.90;;;0.10;99.90;;;;;;4956377;28;20421;-88
2024/01/17 09:31:26;;;;;;;1999.90;999.90;;;0.20;99.90;;;;;;4956024;28;20031;-88
2024/01/17 09:33:52;;;;;;;1999.90;999.90;;;0.20;99.90;;;;;;4955875;28;20106;-88
2024/01/17 09:36:18;;;;;;;1999.90;999.90;;;0.20;99.90;;;;;;4955911;28;20036;-88
2024/01/17 09:38:43;;;;;;;1999.90;999.90;;;0.30;99.90;;;;;;4955857;28;20035;-88
2024/01/17 09:41:09;;;;;;;1999.90;999.90;;;0.20;99.90;;;;;;4955864;28;20028;-88
2024/01/17 09:43:35;;;;;;;1999.90;999.90;;;0.30;99.90;;;;;;4955827;28;20043;-88
2024/01/17 09:46:02;;;;;;;1999.90;999.90;;;0.40;99.90;;;;;;4955664;28;20696;-88
2024/01/17 09:48:28;;;;;;;1999.90;999.90;;;0.40;99.90;;;;;;4955135;28;20044;-88
2024/01/17 09:50:55;;;;;;;1999.90;999.90;;;0.40;99.90;;;;;;4955618;28;20450;-88
2024/01/17 09:53:28;;;;;;;1999.90;999.90;;;0.40;99.90;;;;;;4955262;28;20556;-88
2024/01/17 09:55:59;;;;;;;1999.90;999.90;;;0.30;99.90;;;;;;4955669;28;20837;-89
2024/01/17 09:58:31;;;;;;;1999.90;999.90;;;0.30;99.90;;;;;;4955512;28;20058;-88
2024/01/17 10:00:59;;;;;;;1999.90;999.90;;;0.30;99.90;;;;;;4955529;28;20054;-91
2024/01/17 10:03:26;;;;;;;1999.90;999.90;;;0.30;99.90;;;;;;4955381;28;20762;-89
2024/01/17 10:05:54;;;;;;;1999.90;999.90;;;0.20;99.90;;;;;;4955350;28;20476;-89
2024/01/17 10:08:21;;;;;;;1999.90;999.90;;;0.40;99.90;;;;;;4955504;28;20043;-89
2024/01/17 10:10:46;;;;;;;1999.90;999.90;;;0.30;99.90;;;;;;4955591;28;20075;-89
2024/01/17 10:13:12;;;;;;;1999.90;999.90;;;0.40;99.90;;;;;;4955842;28;20123;-90
2024/01/17 10:15:42;;;;;;;1999.90;999.90;;;0.50;99.90;;;;;;4958664;28;20039;-90
2024/01/17 10:18:10;;;;;;;1999.90;999.90;;;0.50;99.90;;;;;;4957877;28;20043;-89
2024/01/17 10:20:39;;;;;;;1999.90;999.90;;;0.50;99.90;;;;;;4958241;28;20035;-90
2024/01/17 10:23:07;;;;;;;1999.90;999.90;;;0.50;99.90;;;;;;4938935;28;20151;-90
2024/01/17 10:25:42;;;;;;;1999.90;999.90;;;0.60;99.90;;;;;;4958857;28;20136;-90
2024/01/17 10:28:08;;;;;;;1999.90;999.90;;;0.70;99.90;;;;;;4957573;28;20043;-90
2024/01/17 10:30:36;;;;;;;1999.90;999.90;;;0.70;99.90;;;;;;4958404;28;20531;-91
2024/01/17 10:33:02;;;;;;;1999.90;999.90;;;0.70;99.90;;;;;;4957709;28;20048;-89
2024/01/17 10:35:28;;;;;;;1999.90;999.90;;;0.80;99.90;;;;;;4958292;28;20497;-88
2024/01/17 10:37:54;;;;;;;1999.90;999.90;;;0.90;99.90;;;;;;4958003;28;20464;-88
2024/01/17 10:40:21;;;;;;;1999.90;999.90;;;0.90;99.90;;;;;;4957820;28;20036;-89
2024/01/17 10:42:46;;;;;;;1999.90;999.90;;;1.00;99.90;;;;;;4957786;28;20043;-88
2024/01/17 10:45:20;;;;;;;1999.90;999.90;;;1.00;99.90;;;;;;4957840;28;20375;-88
2024/01/17 10:47:46;;;;;;;1999.90;999.90;;;1.00;99.90;;;;;;4957455;28;20126;-89
2024/01/17 10:50:12;;;;;;;1999.90;999.90;;;1.00;99.90;;;;;;4959048;28;20085;-88
2024/01/17 10:52:43;;;;;;;1999.90;999.90;;;1.20;99.90;;;;;;4956760;28;20039;-88
2024/01/17 10:55:10;;;;;;;1999.90;999.90;;;1.30;99.90;;;;;;4957633;28;20482;-89
2024/01/17 10:57:44;;;;;;;1999.90;999.90;;;1.40;99.90;;;;;;4957455;28;20517;-89
2024/01/17 11:00:16;;;;;;;1999.90;999.90;;;1.50;99.90;;;;;;4956541;28;20040;-88
2024/01/17 11:02:43;;;;;;;1999.90;999.90;;;1.60;99.90;;;;;;4957359;28;20034;-88
2024/01/17 11:05:13;;;;;;;1999.90;999.90;;;1.60;99.90;;;;;;4957843;28;20031;-88
2024/01/17 11:07:40;;;;;;;1999.90;999.90;;;1.60;99.90;;;;;;4957833;28;20063;-88
2024/01/17 11:10:07;;;;;;;1999.90;999.90;;;1.50;99.90;;;;;;4957519;28;20067;-88
2024/01/17 11:12:37;;;;;;;1999.90;999.90;;;1.50;99.90;;;;;;4957190;28;20036;-87
2024/01/17 11:15:06;;;;;;;1999.90;999.90;;;1.50;99.90;;;;;;4957572;28;20039;-88
2024/01/17 11:17:39;;;;;;;1999.90;999.90;;;1.40;99.90;;;;;;4957222;28;20039;-88
2024/01/17 11:20:08;;;;;;;1999.90;999.90;;;1.30;99.90;;;;;;4958921;28;20036;-88
2024/01/17 11:22:39;;;;;;;1999.90;999.90;;;1.30;99.90;;;;;;4957832;28;20103;-88
2024/01/17 11:25:37;;;;;;;1999.90;999.90;;;1.20;99.90;;;;;;4955738;28;20075;-88
2024/01/17 11:28:26;;;;;;;1999.90;999.90;;;1.20;99.90;;;;;;4956540;28;20038;-88
2024/01/17 11:31:23;;;;;;;1999.90;999.90;;;1.10;99.90;;;;;;4957524;28;20047;-87
2024/01/17 11:33:50;;;;;;;1999.90;999.90;;;1.10;99.90;;;;;;4957156;28;20044;-88
2024/01/17 11:36:42;;;;;;;1999.90;999.90;;;1.00;99.90;;;;;;4958817;28;20525;-87
2024/01/17 11:39:18;;;;;;;1999.90;999.90;;;1.00;99.90;;;;;;4956043;28;20036;-87
2024/01/17 11:41:45;;;;;;;1999.90;999.90;;;1.00;99.90;;;;;;4957281;28;20035;-87
2024/01/17 11:44:16;;;;;;;1999.90;999.90;;;1.10;99.90;;;;;;4957561;28;20196;-87
2024/01/17 11:46:48;;;;;;;1999.90;999.90;;;1.00;99.90;;;;;;4956853;28;20027;-87
2024/01/17 11:49:17;;;;;;;1999.90;999.90;;;1.10;99.90;;;;;;4957546;28;20514;-87
2024/01/17 11:51:44;;;;;;;1999.90;999.90;;;1.10;99.90;;;;;;4956996;28;20038;-87
2024/01/17 11:54:12;;;;;;;1999.90;999.90;;;1.00;99.90;;;;;;4957154;28;20043;-87
2024/01/17 11:56:38;;;;;;;1999.90;999.90;;;1.10;99.90;;;;;;4957086;28;20569;-87
2024/01/17 11:59:06;;;;;;;1999.90;999.90;;;1.00;99.90;;;;;;4957272;28;20131;-87